sensor_id;sensor_type;location;lat;lon;timestamp;P1;durP1;ratioP1;P2;durP2;ratioP2
24867;SDS011;12941;48.698;9.310;2023-08-01T00:00:23;4.5;;;2.9;;
24867;SDS011;12941;48.698;9.310;2023-08-01T00:01:28;4.4;;;3.1;;
24867;SDS011;12941;48.698;9.310;2023-08-01T00:02:28;4.1;;;3;;
24867;SDS011;12941;48.698;9.310;2023-08-01T00:03:33;4.1;;;3;;
24867;SDS011;12941;48.698;9.310;2023-08-01T00:04:33;4.1;;;3;;
24867;SDS011;12941;48.698;9.310;2023-08-01T00:05:33;4.1;;;3;;
24867;SDS011;12941;48.698;9.310;2023-08-01T00:06:33;5;;;2.9;;
24867;SDS011;12941;48.698;9.310;2023-08-01T00:07:38;5;;;2.9;;
24867;SDS011;12941;48.698;9.310;2023-08-01T00:08:44;5;;;2.9;;
24867;SDS011;12941;48.698;9.310;2023-08-01T00:09:48;5;;;2.9;;
24867;SDS011;12941;48.698;9.310;2023-08-01T00:10:48;5;;;2.9;;
24867;SDS011;12941;48.698;9.310;2023-08-01T00:11:53;4;;;2.8;;
24867;SDS011;12941;48.698;9.310;2023-08-01T00:12:58;4;;;2.8;;
24867;SDS011;12941;48.698;9.310;2023-08-01T00:14:03;4;;;2.8;;
24867;SDS011;12941;48.698;9.310;2023-08-01T00:15:04;4;;;2.8;;
24867;SDS011;12941;48.698;9.310;2023-08-01T00:16:08;4;;;2.8;;
24867;SDS011;12941;48.698;9.310;2023-08-01T00:17:13;4.4;;;3.1;;
24867;SDS011;12941;48.698;9.310;2023-08-01T00:18:13;4.4;;;3.1;;
24867;SDS011;12941;48.698;9.310;2023-08-01T00:19:13;4.4;;;3.1;;
24867;SDS011;12941;48.698;9.310;2023-08-01T00:20:13;4.4;;;3.1;;
24867;SDS011;12941;48.698;9.310;2023-08-01T00:21:13;4.4;;;3.1;;
24867;SDS011;12941;48.698;9.310;2023-08-01T00:22:18;3.9;;;2.8;;
24867;SDS011;12941;48.698;9.310;2023-08-01T00:23:23;3.9;;;2.8;;
24867;SDS011;12941;48.698;9.310;2023-08-01T00:24:28;3.9;;;2.8;;
24867;SDS011;12941;48.698;9.310;2023-08-01T00:25:34;3.9;;;2.8;;
24867;SDS011;12941;48.698;9.310;2023-08-01T00:26:34;5.2;;;3;;
24867;SDS011;12941;48.698;9.310;2023-08-01T00:27:38;5.2;;;3;;
24867;SDS011;12941;48.698;9.310;2023-08-01T00:28:38;5.2;;;3;;
24867;SDS011;12941;48.698;9.310;2023-08-01T00:29:44;5.2;;;3;;
24867;SDS011;12941;48.698;9.310;2023-08-01T00:30:48;5.2;;;3;;
24867;SDS011;12941;48.698;9.310;2023-08-01T00:31:54;4.8;;;3.1;;
24867;SDS011;12941;48.698;9.310;2023-08-01T00:32:54;4.8;;;3.1;;
24867;SDS011;12941;48.698;9.310;2023-08-01T00:33:58;4.8;;;3.1;;
24867;SDS011;12941;48.698;9.310;2023-08-01T00:34:58;4.8;;;3.1;;
24867;SDS011;12941;48.698;9.310;2023-08-01T00:35:58;4.8;;;3.1;;
24867;SDS011;12941;48.698;9.310;2023-08-01T00:36:58;3.9;;;3.3;;
24867;SDS011;12941;48.698;9.310;2023-08-01T00:37:58;3.9;;;3.3;;
24867;SDS011;12941;48.698;9.310;2023-08-01T00:39:04;3.9;;;3.3;;
24867;SDS011;12941;48.698;9.310;2023-08-01T00:40:04;3.9;;;3.3;;
24867;SDS011;12941;48.698;9.310;2023-08-01T00:41:04;3.9;;;3.3;;
24867;SDS011;12941;48.698;9.310;2023-08-01T00:42:08;3.6;;;2.7;;
24867;SDS011;12941;48.698;9.310;2023-08-01T00:43:08;3.6;;;2.7;;
24867;SDS011;12941;48.698;9.310;2023-08-01T00:44:14;3.6;;;2.7;;
24867;SDS011;12941;48.698;9.310;2023-08-01T00:45:14;3.6;;;2.7;;
24867;SDS011;12941;48.698;9.310;2023-08-01T00:46:18;3.6;;;2.7;;
24867;SDS011;12941;48.698;9.310;2023-08-01T00:47:24;4.3;;;3.1;;
24867;SDS011;12941;48.698;9.310;2023-08-01T00:48:29;4.3;;;3.1;;
24867;SDS011;12941;48.698;9.310;2023-08-01T00:49:34;4.3;;;3.1;;
24867;SDS011;12941;48.698;9.310;2023-08-01T00:50:39;4.3;;;3.1;;
24867;SDS011;12941;48.698;9.310;2023-08-01T00:51:44;4.1;;;3.3;;
24867;SDS011;12941;48.698;9.310;2023-08-01T00:52:44;4.1;;;3.3;;
24867;SDS011;12941;48.698;9.310;2023-08-01T00:53:44;4.1;;;3.3;;
24867;SDS011;12941;48.698;9.310;2023-08-01T00:54:48;4.1;;;3.3;;
24867;SDS011;12941;48.698;9.310;2023-08-01T00:55:48;4.1;;;3.3;;
24867;SDS011;12941;48.698;9.310;2023-08-01T00:56:49;3.7;;;3.1;;
24867;SDS011;12941;48.698;9.310;2023-08-01T00:57:54;3.7;;;3.1;;
24867;SDS011;12941;48.698;9.310;2023-08-01T00:58:58;3.7;;;3.1;;
24867;SDS011;12941;48.698;9.310;2023-08-01T00:59:59;3.7;;;3.1;;
24867;SDS011;12941;48.698;9.310;2023-08-01T01:01:04;3.7;;;3.1;;
24867;SDS011;12941;48.698;9.310;2023-08-01T01:02:08;4;;;3.2;;
24867;SDS011;12941;48.698;9.310;2023-08-01T01:03:08;4;;;3.2;;
24867;SDS011;12941;48.698;9.310;2023-08-01T01:04:14;4;;;3.2;;
24867;SDS011;12941;48.698;9.310;2023-08-01T01:05:14;4;;;3.2;;
24867;SDS011;12941;48.698;9.310;2023-08-01T01:06:20;4;;;3.2;;
24867;SDS011;12941;48.698;9.310;2023-08-01T01:07:24;3.8;;;3;;
24867;SDS011;12941;48.698;9.310;2023-08-01T01:08:24;3.8;;;3;;
24867;SDS011;12941;48.698;9.310;2023-08-01T01:09:29;3.8;;;3;;
24867;SDS011;12941;48.698;9.310;2023-08-01T01:10:28;3.8;;;3;;
24867;SDS011;12941;48.698;9.310;2023-08-01T01:11:29;4.1;;;3.1;;
24867;SDS011;12941;48.698;9.310;2023-08-01T01:12:34;4.1;;;3.1;;
24867;SDS011;12941;48.698;9.310;2023-08-01T01:13:39;4.1;;;3.1;;
24867;SDS011;12941;48.698;9.310;2023-08-01T01:14:44;4.1;;;3.1;;
24867;SDS011;12941;48.698;9.310;2023-08-01T01:15:44;4.1;;;3.1;;
24867;SDS011;12941;48.698;9.310;2023-08-01T01:16:44;4.2;;;3.2;;
24867;SDS011;12941;48.698;9.310;2023-08-01T01:17:48;4.2;;;3.2;;
24867;SDS011;12941;48.698;9.310;2023-08-01T01:18:54;4.2;;;3.2;;
24867;SDS011;12941;48.698;9.310;2023-08-01T01:19:54;4.2;;;3.2;;
24867;SDS011;12941;48.698;9.310;2023-08-01T01:20:59;4.2;;;3.2;;
24867;SDS011;12941;48.698;9.310;2023-08-01T01:21:59;5.2;;;3.2;;
24867;SDS011;12941;48.698;9.310;2023-08-01T01:23:04;5.2;;;3.2;;
24867;SDS011;12941;48.698;9.310;2023-08-01T01:24:09;5.2;;;3.2;;
24867;SDS011;12941;48.698;9.310;2023-08-01T01:25:09;5.2;;;3.2;;
24867;SDS011;12941;48.698;9.310;2023-08-01T01:26:09;5.2;;;3.2;;
24867;SDS011;12941;48.698;9.310;2023-08-01T01:27:09;4.1;;;3;;
24867;SDS011;12941;48.698;9.310;2023-08-01T01:28:09;4.1;;;3;;
24867;SDS011;12941;48.698;9.310;2023-08-01T01:29:09;4.1;;;3;;
24867;SDS011;12941;48.698;9.310;2023-08-01T01:30:14;4.1;;;3;;
24867;SDS011;12941;48.698;9.310;2023-08-01T01:31:19;4.1;;;3;;
24867;SDS011;12941;48.698;9.310;2023-08-01T01:32:19;4.6;;;3.2;;
24867;SDS011;12941;48.698;9.310;2023-08-01T01:33:19;4.6;;;3.2;;
24867;SDS011;12941;48.698;9.310;2023-08-01T01:34:19;4.6;;;3.2;;
24867;SDS011;12941;48.698;9.310;2023-08-01T01:35:24;4.6;;;3.2;;
24867;SDS011;12941;48.698;9.310;2023-08-01T01:36:24;4.6;;;3.2;;
24867;SDS011;12941;48.698;9.310;2023-08-01T01:37:24;4;;;2.9;;
24867;SDS011;12941;48.698;9.310;2023-08-01T01:38:24;4;;;2.9;;
24867;SDS011;12941;48.698;9.310;2023-08-01T01:39:29;4;;;2.9;;
24867;SDS011;12941;48.698;9.310;2023-08-01T01:40:29;4;;;2.9;;
24867;SDS011;12941;48.698;9.310;2023-08-01T01:41:29;4.9;;;3.1;;
24867;SDS011;12941;48.698;9.310;2023-08-01T01:42:34;4.9;;;3.1;;
24867;SDS011;12941;48.698;9.310;2023-08-01T01:43:39;4.9;;;3.1;;
24867;SDS011;12941;48.698;9.310;2023-08-01T01:44:39;4.9;;;3.1;;
24867;SDS011;12941;48.698;9.310;2023-08-01T01:45:39;4.9;;;3.1;;
24867;SDS011;12941;48.698;9.310;2023-08-01T01:46:44;4.5;;;2.9;;
24867;SDS011;12941;48.698;9.310;2023-08-01T01:47:49;4.5;;;2.9;;
24867;SDS011;12941;48.698;9.310;2023-08-01T01:48:49;4.5;;;2.9;;
24867;SDS011;12941;48.698;9.310;2023-08-01T01:49:49;4.5;;;2.9;;
24867;SDS011;12941;48.698;9.310;2023-08-01T01:50:54;4.5;;;2.9;;
24867;SDS011;12941;48.698;9.310;2023-08-01T01:51:54;4.5;;;3.3;;
24867;SDS011;12941;48.698;9.310;2023-08-01T01:52:54;4.5;;;3.3;;
24867;SDS011;12941;48.698;9.310;2023-08-01T01:53:59;4.5;;;3.3;;
24867;SDS011;12941;48.698;9.310;2023-08-01T01:54:59;4.5;;;3.3;;
24867;SDS011;12941;48.698;9.310;2023-08-01T01:55:59;4.5;;;3.3;;
24867;SDS011;12941;48.698;9.310;2023-08-01T01:56:59;4.5;;;3.1;;
24867;SDS011;12941;48.698;9.310;2023-08-01T01:57:59;4.5;;;3.1;;
24867;SDS011;12941;48.698;9.310;2023-08-01T01:59:04;4.5;;;3.1;;
24867;SDS011;12941;48.698;9.310;2023-08-01T02:00:09;4.5;;;3.1;;
24867;SDS011;12941;48.698;9.310;2023-08-01T02:01:09;4.5;;;3.1;;
24867;SDS011;12941;48.698;9.310;2023-08-01T02:02:09;4.2;;;3.1;;
24867;SDS011;12941;48.698;9.310;2023-08-01T02:03:14;4.2;;;3.1;;
24867;SDS011;12941;48.698;9.310;2023-08-01T02:04:19;4.2;;;3.1;;
24867;SDS011;12941;48.698;9.310;2023-08-01T02:05:19;4.2;;;3.1;;
24867;SDS011;12941;48.698;9.310;2023-08-01T02:06:19;4.2;;;3.1;;
24867;SDS011;12941;48.698;9.310;2023-08-01T02:07:19;4;;;3.4;;
24867;SDS011;12941;48.698;9.310;2023-08-01T02:08:24;4;;;3.4;;
24867;SDS011;12941;48.698;9.310;2023-08-01T02:09:24;4;;;3.4;;
24867;SDS011;12941;48.698;9.310;2023-08-01T02:10:29;4;;;3.4;;
24867;SDS011;12941;48.698;9.310;2023-08-01T02:11:29;4.9;;;3.4;;
24867;SDS011;12941;48.698;9.310;2023-08-01T02:12:29;4.9;;;3.4;;
24867;SDS011;12941;48.698;9.310;2023-08-01T02:13:34;4.9;;;3.4;;
24867;SDS011;12941;48.698;9.310;2023-08-01T02:14:39;4.9;;;3.4;;
24867;SDS011;12941;48.698;9.310;2023-08-01T02:15:39;4.9;;;3.4;;
24867;SDS011;12941;48.698;9.310;2023-08-01T02:16:44;4.4;;;3.1;;
24867;SDS011;12941;48.698;9.310;2023-08-01T02:17:49;4.4;;;3.1;;
24867;SDS011;12941;48.698;9.310;2023-08-01T02:18:49;4.4;;;3.1;;
24867;SDS011;12941;48.698;9.310;2023-08-01T02:19:54;4.4;;;3.1;;
24867;SDS011;12941;48.698;9.310;2023-08-01T02:20:54;4.4;;;3.1;;
24867;SDS011;12941;48.698;9.310;2023-08-01T02:21:59;3.6;;;3.1;;
24867;SDS011;12941;48.698;9.310;2023-08-01T02:22:59;3.6;;;3.1;;
24867;SDS011;12941;48.698;9.310;2023-08-01T02:24:04;3.6;;;3.1;;
24867;SDS011;12941;48.698;9.310;2023-08-01T02:25:04;3.6;;;3.1;;
24867;SDS011;12941;48.698;9.310;2023-08-01T02:26:09;3.6;;;3.1;;
24867;SDS011;12941;48.698;9.310;2023-08-01T02:27:09;5.3;;;3.4;;
24867;SDS011;12941;48.698;9.310;2023-08-01T02:28:10;5.3;;;3.4;;
24867;SDS011;12941;48.698;9.310;2023-08-01T02:29:10;5.3;;;3.4;;
24867;SDS011;12941;48.698;9.310;2023-08-01T02:30:11;5.3;;;3.4;;
24867;SDS011;12941;48.698;9.310;2023-08-01T02:31:14;5.3;;;3.4;;
24867;SDS011;12941;48.698;9.310;2023-08-01T02:32:14;4.3;;;3.1;;
24867;SDS011;12941;48.698;9.310;2023-08-01T02:33:20;4.3;;;3.1;;
24867;SDS011;12941;48.698;9.310;2023-08-01T02:34:24;4.3;;;3.1;;
24867;SDS011;12941;48.698;9.310;2023-08-01T02:35:30;4.3;;;3.1;;
24867;SDS011;12941;48.698;9.310;2023-08-01T02:36:30;4.4;;;3;;
24867;SDS011;12941;48.698;9.310;2023-08-01T02:37:34;4.4;;;3;;
24867;SDS011;12941;48.698;9.310;2023-08-01T02:38:34;4.4;;;3;;
24867;SDS011;12941;48.698;9.310;2023-08-01T02:39:35;4.4;;;3;;
24867;SDS011;12941;48.698;9.310;2023-08-01T02:40:40;4.4;;;3;;
24867;SDS011;12941;48.698;9.310;2023-08-01T02:41:44;5.9;;;3;;
24867;SDS011;12941;48.698;9.310;2023-08-01T02:42:50;5.9;;;3;;
24867;SDS011;12941;48.698;9.310;2023-08-01T02:43:54;5.9;;;3;;
24867;SDS011;12941;48.698;9.310;2023-08-01T02:44:55;5.9;;;3;;
24867;SDS011;12941;48.698;9.310;2023-08-01T02:46:00;5.9;;;3;;
24867;SDS011;12941;48.698;9.310;2023-08-01T02:47:04;3.7;;;3.2;;
24867;SDS011;12941;48.698;9.310;2023-08-01T02:48:04;3.7;;;3.2;;
24867;SDS011;12941;48.698;9.310;2023-08-01T02:49:10;3.7;;;3.2;;
24867;SDS011;12941;48.698;9.310;2023-08-01T02:50:14;3.7;;;3.2;;
24867;SDS011;12941;48.698;9.310;2023-08-01T02:51:20;3.7;;;3.2;;
24867;SDS011;12941;48.698;9.310;2023-08-01T02:52:20;4.7;;;3;;
24867;SDS011;12941;48.698;9.310;2023-08-01T02:53:25;4.7;;;3;;
24867;SDS011;12941;48.698;9.310;2023-08-01T02:54:30;4.7;;;3;;
24867;SDS011;12941;48.698;9.310;2023-08-01T02:55:30;4.7;;;3;;
24867;SDS011;12941;48.698;9.310;2023-08-01T02:56:30;5.1;;;3.2;;
24867;SDS011;12941;48.698;9.310;2023-08-01T02:57:35;5.1;;;3.2;;
24867;SDS011;12941;48.698;9.310;2023-08-01T02:58:40;5.1;;;3.2;;
24867;SDS011;12941;48.698;9.310;2023-08-01T02:59:40;5.1;;;3.2;;
24867;SDS011;12941;48.698;9.310;2023-08-01T03:00:44;5.1;;;3.2;;
24867;SDS011;12941;48.698;9.310;2023-08-01T03:01:44;4.1;;;2.8;;
24867;SDS011;12941;48.698;9.310;2023-08-01T03:02:50;4.1;;;2.8;;
24867;SDS011;12941;48.698;9.310;2023-08-01T03:03:50;4.1;;;2.8;;
24867;SDS011;12941;48.698;9.310;2023-08-01T03:04:50;4.1;;;2.8;;
24867;SDS011;12941;48.698;9.310;2023-08-01T03:05:54;4.1;;;2.8;;
24867;SDS011;12941;48.698;9.310;2023-08-01T03:06:55;3.8;;;2.9;;
24867;SDS011;12941;48.698;9.310;2023-08-01T03:08:00;3.8;;;2.9;;
24867;SDS011;12941;48.698;9.310;2023-08-01T03:09:05;3.8;;;2.9;;
24867;SDS011;12941;48.698;9.310;2023-08-01T03:10:10;3.8;;;2.9;;
24867;SDS011;12941;48.698;9.310;2023-08-01T03:11:10;3.8;;;2.9;;
24867;SDS011;12941;48.698;9.310;2023-08-01T03:12:10;3.8;;;3.1;;
24867;SDS011;12941;48.698;9.310;2023-08-01T03:13:15;3.8;;;3.1;;
24867;SDS011;12941;48.698;9.310;2023-08-01T03:14:15;3.8;;;3.1;;
24867;SDS011;12941;48.698;9.310;2023-08-01T03:15:20;3.8;;;3.1;;
24867;SDS011;12941;48.698;9.310;2023-08-01T03:16:25;3.8;;;3;;
24867;SDS011;12941;48.698;9.310;2023-08-01T03:17:25;3.8;;;3;;
24867;SDS011;12941;48.698;9.310;2023-08-01T03:18:30;3.8;;;3;;
24867;SDS011;12941;48.698;9.310;2023-08-01T03:19:30;3.8;;;3;;
24867;SDS011;12941;48.698;9.310;2023-08-01T03:20:35;3.8;;;3;;
24867;SDS011;12941;48.698;9.310;2023-08-01T03:21:35;3.6;;;2.9;;
24867;SDS011;12941;48.698;9.310;2023-08-01T03:22:40;3.6;;;2.9;;
24867;SDS011;12941;48.698;9.310;2023-08-01T03:23:40;3.6;;;2.9;;
24867;SDS011;12941;48.698;9.310;2023-08-01T03:24:40;3.6;;;2.9;;
24867;SDS011;12941;48.698;9.310;2023-08-01T03:25:45;3.6;;;2.9;;
24867;SDS011;12941;48.698;9.310;2023-08-01T03:26:50;5.1;;;2.9;;
24867;SDS011;12941;48.698;9.310;2023-08-01T03:27:55;5.1;;;2.9;;
24867;SDS011;12941;48.698;9.310;2023-08-01T03:28:55;5.1;;;2.9;;
24867;SDS011;12941;48.698;9.310;2023-08-01T03:29:55;5.1;;;2.9;;
24867;SDS011;12941;48.698;9.310;2023-08-01T03:30:55;5.1;;;2.9;;
24867;SDS011;12941;48.698;9.310;2023-08-01T03:32:00;6.2;;;2.8;;
24867;SDS011;12941;48.698;9.310;2023-08-01T03:33:05;6.2;;;2.8;;
24867;SDS011;12941;48.698;9.310;2023-08-01T03:34:05;6.2;;;2.8;;
24867;SDS011;12941;48.698;9.310;2023-08-01T03:35:10;6.2;;;2.8;;
24867;SDS011;12941;48.698;9.310;2023-08-01T03:36:10;6.2;;;2.8;;
24867;SDS011;12941;48.698;9.310;2023-08-01T03:37:15;4.4;;;3;;
24867;SDS011;12941;48.698;9.310;2023-08-01T03:38:15;4.4;;;3;;
24867;SDS011;12941;48.698;9.310;2023-08-01T03:39:20;4.4;;;3;;
24867;SDS011;12941;48.698;9.310;2023-08-01T03:40:20;4.4;;;3;;
24867;SDS011;12941;48.698;9.310;2023-08-01T03:41:25;4;;;3.1;;
24867;SDS011;12941;48.698;9.310;2023-08-01T03:42:25;4.2;;;3.1;;
24867;SDS011;12941;48.698;9.310;2023-08-01T03:43:25;4.2;;;3.1;;
24867;SDS011;12941;48.698;9.310;2023-08-01T03:44:25;4.2;;;3.1;;
24867;SDS011;12941;48.698;9.310;2023-08-01T03:45:25;4.2;;;3.1;;
24867;SDS011;12941;48.698;9.310;2023-08-01T03:46:29;5.1;;;3.4;;
24867;SDS011;12941;48.698;9.310;2023-08-01T03:47:30;5.1;;;3.4;;
24867;SDS011;12941;48.698;9.310;2023-08-01T03:48:35;5.1;;;3.4;;
24867;SDS011;12941;48.698;9.310;2023-08-01T03:49:40;5.1;;;3.4;;
24867;SDS011;12941;48.698;9.310;2023-08-01T03:50:40;5.1;;;3.4;;
24867;SDS011;12941;48.698;9.310;2023-08-01T03:51:45;4.8;;;3;;
24867;SDS011;12941;48.698;9.310;2023-08-01T03:52:45;4.8;;;3;;
24867;SDS011;12941;48.698;9.310;2023-08-01T03:53:50;4.8;;;3;;
24867;SDS011;12941;48.698;9.310;2023-08-01T03:54:53;4.8;;;3;;
24867;SDS011;12941;48.698;9.310;2023-08-01T03:55:55;4.8;;;3;;
24867;SDS011;12941;48.698;9.310;2023-08-01T03:56:55;3.5;;;2.9;;
24867;SDS011;12941;48.698;9.310;2023-08-01T03:58:00;3.5;;;2.9;;
24867;SDS011;12941;48.698;9.310;2023-08-01T03:59:05;3.5;;;2.9;;
24867;SDS011;12941;48.698;9.310;2023-08-01T04:00:10;3.5;;;2.9;;
24867;SDS011;12941;48.698;9.310;2023-08-01T04:01:10;3.5;;;2.9;;
24867;SDS011;12941;48.698;9.310;2023-08-01T04:02:15;3.8;;;2.8;;
24867;SDS011;12941;48.698;9.310;2023-08-01T04:03:20;3.8;;;2.8;;
24867;SDS011;12941;48.698;9.310;2023-08-01T04:04:25;3.8;;;2.8;;
24867;SDS011;12941;48.698;9.310;2023-08-01T04:05:25;3.8;;;2.8;;
24867;SDS011;12941;48.698;9.310;2023-08-01T04:06:29;5.8;;;3.2;;
24867;SDS011;12941;48.698;9.310;2023-08-01T04:07:30;5.8;;;3.2;;
24867;SDS011;12941;48.698;9.310;2023-08-01T04:08:35;5.8;;;3.2;;
24867;SDS011;12941;48.698;9.310;2023-08-01T04:09:35;5.8;;;3.2;;
24867;SDS011;12941;48.698;9.310;2023-08-01T04:10:35;5.8;;;3.2;;
24867;SDS011;12941;48.698;9.310;2023-08-01T04:11:35;4;;;3.2;;
24867;SDS011;12941;48.698;9.310;2023-08-01T04:13:35;4;;;3.2;;
24867;SDS011;12941;48.698;9.310;2023-08-01T04:14:35;4;;;3.2;;
24867;SDS011;12941;48.698;9.310;2023-08-01T04:15:40;4;;;3.2;;
24867;SDS011;12941;48.698;9.310;2023-08-01T04:16:40;3.4;;;2.5;;
24867;SDS011;12941;48.698;9.310;2023-08-01T04:17:40;3.4;;;2.5;;
24867;SDS011;12941;48.698;9.310;2023-08-01T04:18:45;3.4;;;2.5;;
24867;SDS011;12941;48.698;9.310;2023-08-01T04:19:50;3.4;;;2.5;;
24867;SDS011;12941;48.698;9.310;2023-08-01T04:20:55;3.4;;;2.5;;
24867;SDS011;12941;48.698;9.310;2023-08-01T04:21:55;4.9;;;3.4;;
24867;SDS011;12941;48.698;9.310;2023-08-01T04:23:00;4.9;;;3.4;;
24867;SDS011;12941;48.698;9.310;2023-08-01T04:24:00;4.9;;;3.4;;
24867;SDS011;12941;48.698;9.310;2023-08-01T04:25:05;4.9;;;3.4;;
24867;SDS011;12941;48.698;9.310;2023-08-01T04:26:05;4.9;;;3.4;;
24867;SDS011;12941;48.698;9.310;2023-08-01T04:27:05;5.2;;;2.9;;
24867;SDS011;12941;48.698;9.310;2023-08-01T04:28:10;5.2;;;2.9;;
24867;SDS011;12941;48.698;9.310;2023-08-01T04:29:10;5.2;;;2.9;;
24867;SDS011;12941;48.698;9.310;2023-08-01T04:30:15;5.2;;;2.9;;
24867;SDS011;12941;48.698;9.310;2023-08-01T04:31:15;5.2;;;2.9;;
24867;SDS011;12941;48.698;9.310;2023-08-01T04:32:15;4.5;;;2.9;;
24867;SDS011;12941;48.698;9.310;2023-08-01T04:33:20;4.5;;;2.9;;
24867;SDS011;12941;48.698;9.310;2023-08-01T04:34:25;4.5;;;2.9;;
24867;SDS011;12941;48.698;9.310;2023-08-01T04:35:25;4.5;;;2.9;;
24867;SDS011;12941;48.698;9.310;2023-08-01T04:36:26;4.5;;;2.9;;
24867;SDS011;12941;48.698;9.310;2023-08-01T04:37:30;3.7;;;2.9;;
24867;SDS011;12941;48.698;9.310;2023-08-01T04:38:31;3.7;;;2.9;;
24867;SDS011;12941;48.698;9.310;2023-08-01T04:39:35;3.7;;;2.9;;
24867;SDS011;12941;48.698;9.310;2023-08-01T04:40:35;3.7;;;2.9;;
24867;SDS011;12941;48.698;9.310;2023-08-01T04:41:36;6.2;;;3.1;;
24867;SDS011;12941;48.698;9.310;2023-08-01T04:42:41;6.2;;;3.1;;
24867;SDS011;12941;48.698;9.310;2023-08-01T04:43:45;6.2;;;3.1;;
24867;SDS011;12941;48.698;9.310;2023-08-01T04:44:45;6.2;;;3.1;;
24867;SDS011;12941;48.698;9.310;2023-08-01T04:45:45;6.2;;;3.1;;
24867;SDS011;12941;48.698;9.310;2023-08-01T04:46:52;4.9;;;3.2;;
24867;SDS011;12941;48.698;9.310;2023-08-01T04:47:51;4.9;;;3.2;;
24867;SDS011;12941;48.698;9.310;2023-08-01T04:48:55;4.9;;;3.2;;
24867;SDS011;12941;48.698;9.310;2023-08-01T04:49:56;4.9;;;3.2;;
24867;SDS011;12941;48.698;9.310;2023-08-01T04:51:01;4.9;;;3.2;;
24867;SDS011;12941;48.698;9.310;2023-08-01T04:52:06;4.2;;;3;;
24867;SDS011;12941;48.698;9.310;2023-08-01T04:53:06;4.2;;;3;;
24867;SDS011;12941;48.698;9.310;2023-08-01T04:54:11;4.2;;;3;;
24867;SDS011;12941;48.698;9.310;2023-08-01T04:55:11;4.2;;;3;;
24867;SDS011;12941;48.698;9.310;2023-08-01T04:56:11;4.2;;;3;;
24867;SDS011;12941;48.698;9.310;2023-08-01T04:57:16;4.5;;;2.9;;
24867;SDS011;12941;48.698;9.310;2023-08-01T04:58:21;4.5;;;2.9;;
24867;SDS011;12941;48.698;9.310;2023-08-01T04:59:26;4.5;;;2.9;;
24867;SDS011;12941;48.698;9.310;2023-08-01T05:00:26;4.5;;;2.9;;
24867;SDS011;12941;48.698;9.310;2023-08-01T05:01:26;4.5;;;2.9;;
24867;SDS011;12941;48.698;9.310;2023-08-01T05:02:26;4.6;;;3.1;;
24867;SDS011;12941;48.698;9.310;2023-08-01T05:03:31;4.6;;;3.1;;
24867;SDS011;12941;48.698;9.310;2023-08-01T05:04:31;4.6;;;3.1;;
24867;SDS011;12941;48.698;9.310;2023-08-01T05:05:31;4.6;;;3.1;;
24867;SDS011;12941;48.698;9.310;2023-08-01T05:06:31;4.1;;;2.8;;
24867;SDS011;12941;48.698;9.310;2023-08-01T05:07:36;4.3;;;2.8;;
24867;SDS011;12941;48.698;9.310;2023-08-01T05:08:36;4.3;;;2.8;;
24867;SDS011;12941;48.698;9.310;2023-08-01T05:09:36;4.3;;;2.8;;
24867;SDS011;12941;48.698;9.310;2023-08-01T05:10:36;4.3;;;2.8;;
24867;SDS011;12941;48.698;9.310;2023-08-01T05:11:41;5.5;;;2.9;;
24867;SDS011;12941;48.698;9.310;2023-08-01T05:12:41;5.5;;;2.9;;
24867;SDS011;12941;48.698;9.310;2023-08-01T05:13:46;5.5;;;2.9;;
24867;SDS011;12941;48.698;9.310;2023-08-01T05:14:51;5.5;;;2.9;;
24867;SDS011;12941;48.698;9.310;2023-08-01T05:15:51;5.5;;;2.9;;
24867;SDS011;12941;48.698;9.310;2023-08-01T05:16:51;4.5;;;2.9;;
24867;SDS011;12941;48.698;9.310;2023-08-01T05:17:52;4.5;;;2.9;;
24867;SDS011;12941;48.698;9.310;2023-08-01T05:18:56;4.5;;;2.9;;
24867;SDS011;12941;48.698;9.310;2023-08-01T05:20:01;4.5;;;2.9;;
24867;SDS011;12941;48.698;9.310;2023-08-01T05:21:01;4.5;;;2.9;;
24867;SDS011;12941;48.698;9.310;2023-08-01T05:22:06;4.5;;;3.2;;
24867;SDS011;12941;48.698;9.310;2023-08-01T05:23:06;4.5;;;3.2;;
24867;SDS011;12941;48.698;9.310;2023-08-01T05:24:06;4.5;;;3.2;;
24867;SDS011;12941;48.698;9.310;2023-08-01T05:25:11;4.5;;;3.2;;
24867;SDS011;12941;48.698;9.310;2023-08-01T05:26:16;4.5;;;3.2;;
24867;SDS011;12941;48.698;9.310;2023-08-01T05:27:16;5.6;;;3.3;;
24867;SDS011;12941;48.698;9.310;2023-08-01T05:28:16;5.6;;;3.3;;
24867;SDS011;12941;48.698;9.310;2023-08-01T05:29:16;5.6;;;3.3;;
24867;SDS011;12941;48.698;9.310;2023-08-01T05:30:21;5.6;;;3.3;;
24867;SDS011;12941;48.698;9.310;2023-08-01T05:31:21;5.6;;;3.3;;
24867;SDS011;12941;48.698;9.310;2023-08-01T05:32:21;4.8;;;3.1;;
24867;SDS011;12941;48.698;9.310;2023-08-01T05:33:26;4.8;;;3.1;;
24867;SDS011;12941;48.698;9.310;2023-08-01T05:34:31;4.8;;;3.1;;
24867;SDS011;12941;48.698;9.310;2023-08-01T05:35:31;4.8;;;3.1;;
24867;SDS011;12941;48.698;9.310;2023-08-01T05:36:31;5.5;;;3.1;;
24867;SDS011;12941;48.698;9.310;2023-08-01T05:37:36;5.6;;;3.1;;
24867;SDS011;12941;48.698;9.310;2023-08-01T05:38:36;5.6;;;3.1;;
24867;SDS011;12941;48.698;9.310;2023-08-01T05:39:36;5.6;;;3.1;;
24867;SDS011;12941;48.698;9.310;2023-08-01T05:40:41;5.6;;;3.1;;
24867;SDS011;12941;48.698;9.310;2023-08-01T05:41:42;4.1;;;3.1;;
24867;SDS011;12941;48.698;9.310;2023-08-01T05:42:46;4.1;;;3.1;;
24867;SDS011;12941;48.698;9.310;2023-08-01T05:43:46;4.1;;;3.1;;
24867;SDS011;12941;48.698;9.310;2023-08-01T05:44:51;4.1;;;3.1;;
24867;SDS011;12941;48.698;9.310;2023-08-01T05:45:51;4.1;;;3.1;;
24867;SDS011;12941;48.698;9.310;2023-08-01T05:46:56;5.3;;;3.2;;
24867;SDS011;12941;48.698;9.310;2023-08-01T05:47:56;5.3;;;3.2;;
24867;SDS011;12941;48.698;9.310;2023-08-01T05:49:01;5.3;;;3.2;;
24867;SDS011;12941;48.698;9.310;2023-08-01T05:50:06;5.3;;;3.2;;
24867;SDS011;12941;48.698;9.310;2023-08-01T05:51:11;5.3;;;3.2;;
24867;SDS011;12941;48.698;9.310;2023-08-01T05:52:11;4.6;;;3.3;;
24867;SDS011;12941;48.698;9.310;2023-08-01T05:53:16;4.6;;;3.3;;
24867;SDS011;12941;48.698;9.310;2023-08-01T05:54:21;4.6;;;3.3;;
24867;SDS011;12941;48.698;9.310;2023-08-01T05:55:26;4.6;;;3.3;;
24867;SDS011;12941;48.698;9.310;2023-08-01T05:56:26;4.6;;;3.3;;
24867;SDS011;12941;48.698;9.310;2023-08-01T05:57:26;6.1;;;3.7;;
24867;SDS011;12941;48.698;9.310;2023-08-01T05:58:31;6.1;;;3.7;;
24867;SDS011;12941;48.698;9.310;2023-08-01T05:59:31;6.1;;;3.7;;
24867;SDS011;12941;48.698;9.310;2023-08-01T06:00:36;6.1;;;3.7;;
24867;SDS011;12941;48.698;9.310;2023-08-01T06:01:41;7.8;;;3.4;;
24867;SDS011;12941;48.698;9.310;2023-08-01T06:02:41;7.8;;;3.4;;
24867;SDS011;12941;48.698;9.310;2023-08-01T06:03:41;7.8;;;3.4;;
24867;SDS011;12941;48.698;9.310;2023-08-01T06:04:41;7.8;;;3.4;;
24867;SDS011;12941;48.698;9.310;2023-08-01T06:05:46;7.8;;;3.4;;
24867;SDS011;12941;48.698;9.310;2023-08-01T06:06:51;5.5;;;3.3;;
24867;SDS011;12941;48.698;9.310;2023-08-01T06:07:51;5.5;;;3.3;;
24867;SDS011;12941;48.698;9.310;2023-08-01T06:08:56;5.5;;;3.3;;
24867;SDS011;12941;48.698;9.310;2023-08-01T06:09:56;5.5;;;3.3;;
24867;SDS011;12941;48.698;9.310;2023-08-01T06:11:01;5.5;;;3.3;;
24867;SDS011;12941;48.698;9.310;2023-08-01T06:12:01;4.1;;;3;;
24867;SDS011;12941;48.698;9.310;2023-08-01T06:13:07;4.1;;;3;;
24867;SDS011;12941;48.698;9.310;2023-08-01T06:14:08;4.1;;;3;;
24867;SDS011;12941;48.698;9.310;2023-08-01T06:15:07;4.1;;;3;;
24867;SDS011;12941;48.698;9.310;2023-08-01T06:16:11;4.1;;;3;;
24867;SDS011;12941;48.698;9.310;2023-08-01T06:17:11;4.7;;;3;;
24867;SDS011;12941;48.698;9.310;2023-08-01T06:18:17;4.7;;;3;;
24867;SDS011;12941;48.698;9.310;2023-08-01T06:19:22;4.7;;;3;;
24867;SDS011;12941;48.698;9.310;2023-08-01T06:20:23;4.7;;;3;;
24867;SDS011;12941;48.698;9.310;2023-08-01T06:21:27;4.7;;;3;;
24867;SDS011;12941;48.698;9.310;2023-08-01T06:22:32;4.4;;;2.8;;
24867;SDS011;12941;48.698;9.310;2023-08-01T06:23:32;4.4;;;2.8;;
24867;SDS011;12941;48.698;9.310;2023-08-01T06:24:32;4.4;;;2.8;;
24867;SDS011;12941;48.698;9.310;2023-08-01T06:25:36;4.4;;;2.8;;
24867;SDS011;12941;48.698;9.310;2023-08-01T06:26:37;4.1;;;2.6;;
24867;SDS011;12941;48.698;9.310;2023-08-01T06:27:37;4.1;;;2.6;;
24867;SDS011;12941;48.698;9.310;2023-08-01T06:28:37;4.1;;;2.6;;
24867;SDS011;12941;48.698;9.310;2023-08-01T06:29:37;4.1;;;2.6;;
24867;SDS011;12941;48.698;9.310;2023-08-01T06:30:42;4.1;;;2.6;;
24867;SDS011;12941;48.698;9.310;2023-08-01T06:31:42;4.4;;;2.7;;